Terminal Aerodrome Forecast
Issued by NWS

Home | Current Version | Previous Version | Text Only | Print | Product List | Glossary On
Versions: 1 2 3 4 5 6 7 8 9 10 11 12
578
FTUS44 KJAN 260539
TAFGTR
TAF
KGTR 260539Z 2606/2706 16007KT P6SM VCSH BKN015 OVC080
     FM260900 17005KT 3SM BR BKN008 BKN250
     FM261400 18007KT 6SM BR BKN008 BKN250
     FM261600 20008KT P6SM BKN015 BKN250
     FM261800 21009KT P6SM BKN050 BKN250=

USA.gov is the U.S. government's official web portal to all federal, state and local government web resources and services.